Aviation Digital Data Service (ADDS)

Output produced by METARs form (1113 UTC 19 February 2019)
found at http://www.aviationweather.gov/metar/data/
 
Forecast for: MMTG (TUXTLA GUTIERREZ, MX)
Text: TAF MMTG 190427Z 1906/2006 31006KT P6SM SKC
Forecast period: 0600 to 1800 UTC 19 February 2019
Forecast type: FROM: standard forecast or significant change
Winds: from the NW (310 degrees) at 7 MPH (6 knots; 3.1 m/s)
Visibility: 6 or more miles 10+ km)
Clouds: clear skies
Weather: no significant weather forecast for this period
Text: FM191800 21012KT P6SM SCT030 SCT250
Forecast period: 1800 UTC 19 February 2019 to 0500 UTC 20 February 2019
Forecast type: FROM: standard forecast or significant change
Winds: from the SSW (210 degrees) at 14 MPH (12 knots; 6.2 m/s)
Visibility: 6 or more miles 10+ km)
Ceiling: at least 12,000 feet AGL
Clouds: scattered clouds at 3000 feet AGL
scattered clouds at 25000 feet AGL
Weather: no significant weather forecast for this period
Text: FM200500 30005KT P6SM SKC
Forecast period: 0500 to 0600 UTC 20 February 2019
Forecast type: FROM: standard forecast or significant change
Winds: from the WNW (300 degrees) at 6 MPH (5 knots; 2.6 m/s)
Visibility: 6 or more miles 10+ km)
Clouds: clear skies
Weather: no significant weather forecast for this period